sensor_id;sensor_type;location;lat;lon;timestamp;temperature;humidity
31369;DHT22;18004;48.416;10.066;2023-07-31T00:01:25;14.70;99.90
31369;DHT22;18004;48.416;10.066;2023-07-31T00:03:51;14.60;99.90
31369;DHT22;18004;48.416;10.066;2023-07-31T00:06:17;14.60;99.90
31369;DHT22;18004;48.416;10.066;2023-07-31T00:08:42;14.50;99.90
31369;DHT22;18004;48.416;10.066;2023-07-31T00:11:08;14.50;99.90
31369;DHT22;18004;48.416;10.066;2023-07-31T00:13:34;14.50;99.90
31369;DHT22;18004;48.416;10.066;2023-07-31T00:16:00;14.50;99.90
31369;DHT22;18004;48.416;10.066;2023-07-31T00:18:25;14.50;99.90
31369;DHT22;18004;48.416;10.066;2023-07-31T00:20:51;14.50;99.90
31369;DHT22;18004;48.416;10.066;2023-07-31T00:23:17;14.50;99.90
31369;DHT22;18004;48.416;10.066;2023-07-31T00:25:42;14.50;99.90
31369;DHT22;18004;48.416;10.066;2023-07-31T00:28:08;14.50;99.90
31369;DHT22;18004;48.416;10.066;2023-07-31T00:30:34;14.50;99.90
31369;DHT22;18004;48.416;10.066;2023-07-31T00:33:00;14.40;99.90
31369;DHT22;18004;48.416;10.066;2023-07-31T00:35:25;14.40;99.90
31369;DHT22;18004;48.416;10.066;2023-07-31T00:37:51;14.40;99.90
31369;DHT22;18004;48.416;10.066;2023-07-31T00:40:17;14.30;99.90
31369;DHT22;18004;48.416;10.066;2023-07-31T00:42:43;14.20;99.90
31369;DHT22;18004;48.416;10.066;2023-07-31T00:45:09;14.30;99.90
31369;DHT22;18004;48.416;10.066;2023-07-31T00:47:34;14.30;99.90
31369;DHT22;18004;48.416;10.066;2023-07-31T00:50:00;14.30;99.90
31369;DHT22;18004;48.416;10.066;2023-07-31T00:52:26;14.20;99.90
31369;DHT22;18004;48.416;10.066;2023-07-31T00:54:52;14.20;99.90
31369;DHT22;18004;48.416;10.066;2023-07-31T00:57:18;14.20;99.90
31369;DHT22;18004;48.416;10.066;2023-07-31T00:59:44;14.10;99.90
31369;DHT22;18004;48.416;10.066;2023-07-31T01:02:10;14.10;99.90
31369;DHT22;18004;48.416;10.066;2023-07-31T01:04:35;14.10;99.90
31369;DHT22;18004;48.416;10.066;2023-07-31T01:07:22;14.10;99.90
31369;DHT22;18004;48.416;10.066;2023-07-31T01:12:27;13.90;99.90
31369;DHT22;18004;48.416;10.066;2023-07-31T01:15:05;13.80;99.90
31369;DHT22;18004;48.416;10.066;2023-07-31T01:17:32;13.60;99.90
31369;DHT22;18004;48.416;10.066;2023-07-31T01:20:02;13.60;99.90
31369;DHT22;18004;48.416;10.066;2023-07-31T01:28:20;13.60;99.90
31369;DHT22;18004;48.416;10.066;2023-07-31T01:30:48;13.50;99.90
31369;DHT22;18004;48.416;10.066;2023-07-31T01:33:16;13.40;99.90
31369;DHT22;18004;48.416;10.066;2023-07-31T01:35:44;13.30;99.90
31369;DHT22;18004;48.416;10.066;2023-07-31T01:38:10;13.20;99.90
31369;DHT22;18004;48.416;10.066;2023-07-31T01:40:36;13.30;99.90
31369;DHT22;18004;48.416;10.066;2023-07-31T01:43:02;13.40;99.90
31369;DHT22;18004;48.416;10.066;2023-07-31T01:45:27;13.50;99.90
31369;DHT22;18004;48.416;10.066;2023-07-31T01:47:53;13.50;99.90
31369;DHT22;18004;48.416;10.066;2023-07-31T01:50:19;13.50;99.90
31369;DHT22;18004;48.416;10.066;2023-07-31T01:52:45;13.60;99.90
31369;DHT22;18004;48.416;10.066;2023-07-31T01:55:10;13.50;99.90
31369;DHT22;18004;48.416;10.066;2023-07-31T01:57:36;13.60;99.90
31369;DHT22;18004;48.416;10.066;2023-07-31T02:00:03;13.60;99.90
31369;DHT22;18004;48.416;10.066;2023-07-31T02:02:29;13.60;99.90
31369;DHT22;18004;48.416;10.066;2023-07-31T02:04:55;13.50;99.90
31369;DHT22;18004;48.416;10.066;2023-07-31T02:07:20;13.50;99.90
31369;DHT22;18004;48.416;10.066;2023-07-31T02:09:46;13.50;99.90
31369;DHT22;18004;48.416;10.066;2023-07-31T02:12:13;13.50;99.90
31369;DHT22;18004;48.416;10.066;2023-07-31T02:14:40;13.50;99.90
31369;DHT22;18004;48.416;10.066;2023-07-31T02:17:06;13.50;99.90
31369;DHT22;18004;48.416;10.066;2023-07-31T02:19:32;13.50;99.90
31369;DHT22;18004;48.416;10.066;2023-07-31T02:21:57;13.50;99.90
31369;DHT22;18004;48.416;10.066;2023-07-31T02:24:24;13.40;99.90
31369;DHT22;18004;48.416;10.066;2023-07-31T02:26:50;13.40;99.90
31369;DHT22;18004;48.416;10.066;2023-07-31T02:29:15;13.20;99.90
31369;DHT22;18004;48.416;10.066;2023-07-31T02:31:41;13.20;99.90
31369;DHT22;18004;48.416;10.066;2023-07-31T02:34:07;13.10;99.90
31369;DHT22;18004;48.416;10.066;2023-07-31T02:36:33;13.10;99.90
31369;DHT22;18004;48.416;10.066;2023-07-31T02:38:58;13.10;99.90
31369;DHT22;18004;48.416;10.066;2023-07-31T02:41:24;13.20;99.90
31369;DHT22;18004;48.416;10.066;2023-07-31T02:43:50;13.10;99.90
31369;DHT22;18004;48.416;10.066;2023-07-31T02:46:16;13.10;99.90
31369;DHT22;18004;48.416;10.066;2023-07-31T02:48:41;13.00;99.90
31369;DHT22;18004;48.416;10.066;2023-07-31T02:51:07;12.90;99.90
31369;DHT22;18004;48.416;10.066;2023-07-31T02:53:33;13.00;99.90
31369;DHT22;18004;48.416;10.066;2023-07-31T02:55:58;13.00;99.90
31369;DHT22;18004;48.416;10.066;2023-07-31T02:58:24;13.00;99.90
31369;DHT22;18004;48.416;10.066;2023-07-31T03:00:50;13.00;99.90
31369;DHT22;18004;48.416;10.066;2023-07-31T03:03:16;13.00;99.90
31369;DHT22;18004;48.416;10.066;2023-07-31T03:05:41;13.00;99.90
31369;DHT22;18004;48.416;10.066;2023-07-31T03:08:07;12.90;99.90
31369;DHT22;18004;48.416;10.066;2023-07-31T03:10:33;12.90;99.90
31369;DHT22;18004;48.416;10.066;2023-07-31T03:12:58;12.80;99.90
31369;DHT22;18004;48.416;10.066;2023-07-31T03:15:24;12.90;99.90
31369;DHT22;18004;48.416;10.066;2023-07-31T03:17:50;12.90;99.90
31369;DHT22;18004;48.416;10.066;2023-07-31T03:20:16;12.90;99.90
31369;DHT22;18004;48.416;10.066;2023-07-31T03:22:41;12.90;99.90
31369;DHT22;18004;48.416;10.066;2023-07-31T03:25:07;13.00;99.90
31369;DHT22;18004;48.416;10.066;2023-07-31T03:27:35;13.00;99.90
31369;DHT22;18004;48.416;10.066;2023-07-31T03:30:02;13.00;99.90
31369;DHT22;18004;48.416;10.066;2023-07-31T03:32:27;12.90;99.90
31369;DHT22;18004;48.416;10.066;2023-07-31T03:34:53;12.90;99.90
31369;DHT22;18004;48.416;10.066;2023-07-31T03:37:19;12.80;99.90
31369;DHT22;18004;48.416;10.066;2023-07-31T03:39:45;12.80;99.90
31369;DHT22;18004;48.416;10.066;2023-07-31T03:42:10;12.90;99.90
31369;DHT22;18004;48.416;10.066;2023-07-31T03:44:36;12.80;99.90
31369;DHT22;18004;48.416;10.066;2023-07-31T03:47:02;12.80;99.90
31369;DHT22;18004;48.416;10.066;2023-07-31T03:49:28;12.80;99.90
31369;DHT22;18004;48.416;10.066;2023-07-31T03:51:54;12.80;99.90
31369;DHT22;18004;48.416;10.066;2023-07-31T03:54:22;12.80;99.90
31369;DHT22;18004;48.416;10.066;2023-07-31T03:56:48;12.70;99.90
31369;DHT22;18004;48.416;10.066;2023-07-31T03:59:14;12.60;99.90
31369;DHT22;18004;48.416;10.066;2023-07-31T04:01:39;12.50;99.90
31369;DHT22;18004;48.416;10.066;2023-07-31T04:04:05;12.60;99.90
31369;DHT22;18004;48.416;10.066;2023-07-31T04:06:31;12.50;99.90
31369;DHT22;18004;48.416;10.066;2023-07-31T04:08:57;12.60;99.90
31369;DHT22;18004;48.416;10.066;2023-07-31T04:11:22;12.60;99.90
31369;DHT22;18004;48.416;10.066;2023-07-31T04:13:48;12.70;99.90
31369;DHT22;18004;48.416;10.066;2023-07-31T04:16:14;12.70;99.90
31369;DHT22;18004;48.416;10.066;2023-07-31T04:18:40;12.70;99.90
31369;DHT22;18004;48.416;10.066;2023-07-31T04:21:05;12.70;99.90
31369;DHT22;18004;48.416;10.066;2023-07-31T04:23:31;12.70;99.90
31369;DHT22;18004;48.416;10.066;2023-07-31T04:25:57;12.80;99.90
31369;DHT22;18004;48.416;10.066;2023-07-31T04:28:23;12.80;99.90
31369;DHT22;18004;48.416;10.066;2023-07-31T04:30:49;12.80;99.90
31369;DHT22;18004;48.416;10.066;2023-07-31T04:33:14;12.90;99.90
31369;DHT22;18004;48.416;10.066;2023-07-31T04:35:40;12.90;99.90
31369;DHT22;18004;48.416;10.066;2023-07-31T04:38:06;12.90;99.90
31369;DHT22;18004;48.416;10.066;2023-07-31T04:40:31;13.00;99.90
31369;DHT22;18004;48.416;10.066;2023-07-31T04:42:57;13.00;99.90
31369;DHT22;18004;48.416;10.066;2023-07-31T04:45:23;13.10;99.90
31369;DHT22;18004;48.416;10.066;2023-07-31T04:47:49;13.10;99.90
31369;DHT22;18004;48.416;10.066;2023-07-31T04:50:14;13.20;99.90
31369;DHT22;18004;48.416;10.066;2023-07-31T04:52:40;13.20;99.90
31369;DHT22;18004;48.416;10.066;2023-07-31T04:55:06;13.20;99.90
31369;DHT22;18004;48.416;10.066;2023-07-31T04:57:32;13.30;99.90
31369;DHT22;18004;48.416;10.066;2023-07-31T04:59:58;13.30;99.90
31369;DHT22;18004;48.416;10.066;2023-07-31T05:02:23;13.40;99.90
31369;DHT22;18004;48.416;10.066;2023-07-31T05:04:50;13.40;99.90
31369;DHT22;18004;48.416;10.066;2023-07-31T05:07:15;13.40;99.90
31369;DHT22;18004;48.416;10.066;2023-07-31T05:09:42;13.40;99.90
31369;DHT22;18004;48.416;10.066;2023-07-31T05:12:08;13.40;99.90
31369;DHT22;18004;48.416;10.066;2023-07-31T05:14:34;13.50;99.90
31369;DHT22;18004;48.416;10.066;2023-07-31T05:17:00;13.50;99.90
31369;DHT22;18004;48.416;10.066;2023-07-31T05:19:25;13.50;99.90
31369;DHT22;18004;48.416;10.066;2023-07-31T05:21:51;13.60;99.90
31369;DHT22;18004;48.416;10.066;2023-07-31T05:24:17;13.70;99.90
31369;DHT22;18004;48.416;10.066;2023-07-31T05:26:42;13.80;99.90
31369;DHT22;18004;48.416;10.066;2023-07-31T05:29:08;13.80;99.90
31369;DHT22;18004;48.416;10.066;2023-07-31T05:31:34;13.80;99.90
31369;DHT22;18004;48.416;10.066;2023-07-31T05:34:00;13.80;99.90
31369;DHT22;18004;48.416;10.066;2023-07-31T05:36:26;13.80;99.90
31369;DHT22;18004;48.416;10.066;2023-07-31T05:38:51;13.80;99.90
31369;DHT22;18004;48.416;10.066;2023-07-31T05:41:17;13.90;99.90
31369;DHT22;18004;48.416;10.066;2023-07-31T05:43:43;14.00;99.90
31369;DHT22;18004;48.416;10.066;2023-07-31T05:46:09;14.00;99.90
31369;DHT22;18004;48.416;10.066;2023-07-31T05:48:35;14.10;99.90
31369;DHT22;18004;48.416;10.066;2023-07-31T05:51:01;14.20;99.90
31369;DHT22;18004;48.416;10.066;2023-07-31T05:53:27;14.20;99.90
31369;DHT22;18004;48.416;10.066;2023-07-31T05:55:52;14.10;99.90
31369;DHT22;18004;48.416;10.066;2023-07-31T05:58:18;14.10;99.90
31369;DHT22;18004;48.416;10.066;2023-07-31T06:00:44;14.10;99.90
31369;DHT22;18004;48.416;10.066;2023-07-31T06:03:10;14.10;99.90
31369;DHT22;18004;48.416;10.066;2023-07-31T06:05:35;14.20;99.90
31369;DHT22;18004;48.416;10.066;2023-07-31T06:08:01;14.20;99.90
31369;DHT22;18004;48.416;10.066;2023-07-31T06:10:27;14.30;99.90
31369;DHT22;18004;48.416;10.066;2023-07-31T06:12:54;14.40;99.90
31369;DHT22;18004;48.416;10.066;2023-07-31T06:15:20;14.50;99.90
31369;DHT22;18004;48.416;10.066;2023-07-31T06:17:45;14.60;99.90
31369;DHT22;18004;48.416;10.066;2023-07-31T06:20:11;14.60;99.90
31369;DHT22;18004;48.416;10.066;2023-07-31T06:22:37;14.60;99.90
31369;DHT22;18004;48.416;10.066;2023-07-31T06:25:03;14.70;99.90
31369;DHT22;18004;48.416;10.066;2023-07-31T06:27:29;14.70;99.90
31369;DHT22;18004;48.416;10.066;2023-07-31T06:29:55;14.90;99.90
31369;DHT22;18004;48.416;10.066;2023-07-31T06:32:21;14.90;99.90
31369;DHT22;18004;48.416;10.066;2023-07-31T06:34:47;15.10;99.90
31369;DHT22;18004;48.416;10.066;2023-07-31T06:37:12;15.20;99.90
31369;DHT22;18004;48.416;10.066;2023-07-31T06:39:38;15.40;99.90
31369;DHT22;18004;48.416;10.066;2023-07-31T06:42:04;15.40;99.90
31369;DHT22;18004;48.416;10.066;2023-07-31T06:44:30;15.60;99.90
31369;DHT22;18004;48.416;10.066;2023-07-31T06:46:56;15.70;99.90
31369;DHT22;18004;48.416;10.066;2023-07-31T06:49:21;15.80;99.90
31369;DHT22;18004;48.416;10.066;2023-07-31T06:51:47;15.80;99.90
31369;DHT22;18004;48.416;10.066;2023-07-31T06:54:13;15.90;99.90
31369;DHT22;18004;48.416;10.066;2023-07-31T06:56:38;15.90;99.90
31369;DHT22;18004;48.416;10.066;2023-07-31T06:59:04;16.00;99.90
31369;DHT22;18004;48.416;10.066;2023-07-31T07:01:30;16.00;99.90
31369;DHT22;18004;48.416;10.066;2023-07-31T07:03:56;16.00;99.90
31369;DHT22;18004;48.416;10.066;2023-07-31T07:06:22;16.00;99.90
31369;DHT22;18004;48.416;10.066;2023-07-31T07:08:48;16.00;99.90
31369;DHT22;18004;48.416;10.066;2023-07-31T07:11:14;16.00;99.90
31369;DHT22;18004;48.416;10.066;2023-07-31T07:13:40;16.00;99.90
31369;DHT22;18004;48.416;10.066;2023-07-31T07:16:06;16.00;99.90
31369;DHT22;18004;48.416;10.066;2023-07-31T07:18:32;16.10;99.90
31369;DHT22;18004;48.416;10.066;2023-07-31T07:20:57;16.10;99.90
31369;DHT22;18004;48.416;10.066;2023-07-31T07:23:24;16.20;99.90
31369;DHT22;18004;48.416;10.066;2023-07-31T07:25:50;16.20;99.90
31369;DHT22;18004;48.416;10.066;2023-07-31T07:28:16;16.30;99.90
31369;DHT22;18004;48.416;10.066;2023-07-31T07:30:42;16.40;99.90
31369;DHT22;18004;48.416;10.066;2023-07-31T07:33:08;16.50;99.90
31369;DHT22;18004;48.416;10.066;2023-07-31T07:35:34;16.50;99.90
31369;DHT22;18004;48.416;10.066;2023-07-31T07:38:02;16.60;99.90
31369;DHT22;18004;48.416;10.066;2023-07-31T07:40:28;16.80;99.90
31369;DHT22;18004;48.416;10.066;2023-07-31T07:42:54;16.90;99.90
31369;DHT22;18004;48.416;10.066;2023-07-31T07:45:19;17.10;99.90
31369;DHT22;18004;48.416;10.066;2023-07-31T07:47:45;17.20;99.90
31369;DHT22;18004;48.416;10.066;2023-07-31T07:50:11;17.20;99.90
31369;DHT22;18004;48.416;10.066;2023-07-31T07:52:37;17.40;99.90
31369;DHT22;18004;48.416;10.066;2023-07-31T07:55:03;17.60;99.90
31369;DHT22;18004;48.416;10.066;2023-07-31T07:57:29;17.70;99.90
31369;DHT22;18004;48.416;10.066;2023-07-31T07:59:55;17.80;99.90
31369;DHT22;18004;48.416;10.066;2023-07-31T08:02:22;18.00;99.90
31369;DHT22;18004;48.416;10.066;2023-07-31T08:05:06;18.30;99.90
31369;DHT22;18004;48.416;10.066;2023-07-31T08:07:32;18.70;99.90
31369;DHT22;18004;48.416;10.066;2023-07-31T08:09:58;18.80;99.90
31369;DHT22;18004;48.416;10.066;2023-07-31T08:12:24;18.70;99.80
31369;DHT22;18004;48.416;10.066;2023-07-31T08:14:50;18.70;99.00
31369;DHT22;18004;48.416;10.066;2023-07-31T08:21:47;18.80;99.20
31369;DHT22;18004;48.416;10.066;2023-07-31T08:25:27;18.90;97.90
31369;DHT22;18004;48.416;10.066;2023-07-31T08:28:00;19.00;96.20
31369;DHT22;18004;48.416;10.066;2023-07-31T08:44:27;19.60;94.50
31369;DHT22;18004;48.416;10.066;2023-07-31T08:50:34;19.90;91.00
31369;DHT22;18004;48.416;10.066;2023-07-31T08:56:32;20.50;77.70
31369;DHT22;18004;48.416;10.066;2023-07-31T08:59:05;20.80;79.00
31369;DHT22;18004;48.416;10.066;2023-07-31T09:05:42;21.60;71.60
31369;DHT22;18004;48.416;10.066;2023-07-31T09:09:44;21.90;57.30
31369;DHT22;18004;48.416;10.066;2023-07-31T09:12:20;22.10;56.60
31369;DHT22;18004;48.416;10.066;2023-07-31T09:19:23;22.00;49.30
31369;DHT22;18004;48.416;10.066;2023-07-31T10:14:02;22.40;32.50
31369;DHT22;18004;48.416;10.066;2023-07-31T10:17:14;22.50;33.20
31369;DHT22;18004;48.416;10.066;2023-07-31T10:20:53;22.60;31.40
31369;DHT22;18004;48.416;10.066;2023-07-31T10:28:03;22.20;34.50
31369;DHT22;18004;48.416;10.066;2023-07-31T10:46:22;22.40;30.30
31369;DHT22;18004;48.416;10.066;2023-07-31T10:57:25;22.60;28.90
31369;DHT22;18004;48.416;10.066;2023-07-31T11:04:25;22.90;29.40
31369;DHT22;18004;48.416;10.066;2023-07-31T11:07:08;23.10;27.00
31369;DHT22;18004;48.416;10.066;2023-07-31T11:09:59;23.20;24.50
31369;DHT22;18004;48.416;10.066;2023-07-31T12:21:27;24.50;14.20
31369;DHT22;18004;48.416;10.066;2023-07-31T12:24:33;24.30;16.90
31369;DHT22;18004;48.416;10.066;2023-07-31T12:38:54;24.10;19.40
31369;DHT22;18004;48.416;10.066;2023-07-31T17:40:32;23.60;33.70
31369;DHT22;18004;48.416;10.066;2023-07-31T17:51:16;23.40;34.20
31369;DHT22;18004;48.416;10.066;2023-07-31T18:01:17;23.10;36.10
31369;DHT22;18004;48.416;10.066;2023-07-31T19:23:16;22.00;62.30
31369;DHT22;18004;48.416;10.066;2023-07-31T19:30:02;21.90;66.40
31369;DHT22;18004;48.416;10.066;2023-07-31T20:01:10;21.70;74.30
31369;DHT22;18004;48.416;10.066;2023-07-31T20:05:11;21.70;77.90
31369;DHT22;18004;48.416;10.066;2023-07-31T20:12:13;21.60;83.60
31369;DHT22;18004;48.416;10.066;2023-07-31T20:49:31;21.20;96.30
31369;DHT22;18004;48.416;10.066;2023-07-31T21:03:35;20.80;99.90
31369;DHT22;18004;48.416;10.066;2023-07-31T21:07:19;20.50;99.90
31369;DHT22;18004;48.416;10.066;2023-07-31T21:14:51;20.50;99.90
31369;DHT22;18004;48.416;10.066;2023-07-31T21:17:31;20.10;99.90
31369;DHT22;18004;48.416;10.066;2023-07-31T21:20:36;19.90;99.90
31369;DHT22;18004;48.416;10.066;2023-07-31T21:23:15;19.70;99.90
31369;DHT22;18004;48.416;10.066;2023-07-31T21:25:41;19.80;99.90
31369;DHT22;18004;48.416;10.066;2023-07-31T21:34:40;19.80;99.90
31369;DHT22;18004;48.416;10.066;2023-07-31T21:37:33;19.90;99.90
31369;DHT22;18004;48.416;10.066;2023-07-31T21:40:02;19.80;99.90
31369;DHT22;18004;48.416;10.066;2023-07-31T21:43:22;19.80;99.90
31369;DHT22;18004;48.416;10.066;2023-07-31T21:46:40;19.90;99.90
31369;DHT22;18004;48.416;10.066;2023-07-31T21:52:50;19.80;99.90
31369;DHT22;18004;48.416;10.066;2023-07-31T21:55:53;19.80;99.90
31369;DHT22;18004;48.416;10.066;2023-07-31T21:58:47;19.80;99.90
31369;DHT22;18004;48.416;10.066;2023-07-31T22:02:33;19.80;99.90
31369;DHT22;18004;48.416;10.066;2023-07-31T22:05:09;19.70;99.90
31369;DHT22;18004;48.416;10.066;2023-07-31T22:08:04;19.60;99.90
31369;DHT22;18004;48.416;10.066;2023-07-31T22:11:18;19.60;99.90
31369;DHT22;18004;48.416;10.066;2023-07-31T22:14:15;19.50;99.90
31369;DHT22;18004;48.416;10.066;2023-07-31T22:18:02;19.50;99.90
31369;DHT22;18004;48.416;10.066;2023-07-31T22:20:10;19.60;99.90
31369;DHT22;18004;48.416;10.066;2023-07-31T22:23:31;19.60;99.90
31369;DHT22;18004;48.416;10.066;2023-07-31T22:29:48;19.50;99.90
31369;DHT22;18004;48.416;10.066;2023-07-31T22:36:44;19.60;99.90
31369;DHT22;18004;48.416;10.066;2023-07-31T22:39:35;19.60;99.90
31369;DHT22;18004;48.416;10.066;2023-07-31T22:43:03;19.50;99.90
31369;DHT22;18004;48.416;10.066;2023-07-31T22:45:54;19.50;99.90
31369;DHT22;18004;48.416;10.066;2023-07-31T22:52:24;19.30;99.90
31369;DHT22;18004;48.416;10.066;2023-07-31T23:01:55;19.20;99.90
31369;DHT22;18004;48.416;10.066;2023-07-31T23:04:26;19.20;99.90
31369;DHT22;18004;48.416;10.066;2023-07-31T23:07:38;19.20;99.90
31369;DHT22;18004;48.416;10.066;2023-07-31T23:10:12;19.20;99.90
31369;DHT22;18004;48.416;10.066;2023-07-31T23:12:44;19.10;99.90
31369;DHT22;18004;48.416;10.066;2023-07-31T23:15:17;19.00;99.90
31369;DHT22;18004;48.416;10.066;2023-07-31T23:17:51;18.90;99.90
31369;DHT22;18004;48.416;10.066;2023-07-31T23:20:28;18.90;99.90
31369;DHT22;18004;48.416;10.066;2023-07-31T23:23:03;18.90;99.90
31369;DHT22;18004;48.416;10.066;2023-07-31T23:25:35;18.90;99.90
31369;DHT22;18004;48.416;10.066;2023-07-31T23:28:07;18.90;99.90
31369;DHT22;18004;48.416;10.066;2023-07-31T23:30:33;18.90;99.90
31369;DHT22;18004;48.416;10.066;2023-07-31T23:33:04;18.90;99.90
31369;DHT22;18004;48.416;10.066;2023-07-31T23:35:36;18.90;99.90
31369;DHT22;18004;48.416;10.066;2023-07-31T23:38:23;18.90;99.90
31369;DHT22;18004;48.416;10.066;2023-07-31T23:40:58;18.90;99.90
31369;DHT22;18004;48.416;10.066;2023-07-31T23:43:24;18.80;99.90
31369;DHT22;18004;48.416;10.066;2023-07-31T23:45:58;18.80;99.90
31369;DHT22;18004;48.416;10.066;2023-07-31T23:48:34;18.70;99.90
31369;DHT22;18004;48.416;10.066;2023-07-31T23:50:59;18.70;99.90
31369;DHT22;18004;48.416;10.066;2023-07-31T23:53:27;18.70;99.90
31369;DHT22;18004;48.416;10.066;2023-07-31T23:56:17;18.60;99.90
31369;DHT22;18004;48.416;10.066;2023-07-31T23:58:45;18.50;99.90
